sensor_id;sensor_type;location;lat;lon;timestamp;pressure;altitude;pressure_sealevel;temperature;humidity
62126;BME280;48112;53.282;6.150;2023-01-25T00:00:04;103997.59;;;16.12;50.18
62126;BME280;48112;53.282;6.150;2023-01-25T00:01:07;104006.88;;;16.11;50.12
62126;BME280;48112;53.282;6.150;2023-01-25T00:02:08;104007.38;;;16.13;50.29
62126;BME280;48112;53.282;6.150;2023-01-25T00:03:11;104003.06;;;16.12;50.31
62126;BME280;48112;53.282;6.150;2023-01-25T00:04:13;104006.88;;;16.11;50.13
62126;BME280;48112;53.282;6.150;2023-01-25T00:05:15;103995.19;;;16.11;50.23
62126;BME280;48112;53.282;6.150;2023-01-25T00:06:18;104006.88;;;16.11;50.42
62126;BME280;48112;53.282;6.150;2023-01-25T00:07:22;103995.97;;;16.11;50.41
62126;BME280;48112;53.282;6.150;2023-01-25T00:08:23;103999.81;;;16.10;50.29
62126;BME280;48112;53.282;6.150;2023-01-25T00:09:26;103999.81;;;16.10;50.28
62126;BME280;48112;53.282;6.150;2023-01-25T00:10:28;103987.00;;;16.11;50.09
62126;BME280;48112;53.282;6.150;2023-01-25T00:11:30;103990.81;;;16.10;50.47
62126;BME280;48112;53.282;6.150;2023-01-25T00:12:32;103988.91;;;16.10;50.51
62126;BME280;48112;53.282;6.150;2023-01-25T00:13:34;103985.38;;;16.10;50.23
62126;BME280;48112;53.282;6.150;2023-01-25T00:14:36;103979.09;;;16.09;50.41
62126;BME280;48112;53.282;6.150;2023-01-25T00:15:38;103980.22;;;16.08;50.37
62126;BME280;48112;53.282;6.150;2023-01-25T00:16:40;103974.75;;;16.08;50.35
62126;BME280;48112;53.282;6.150;2023-01-25T00:17:43;103981.81;;;16.09;50.08
62126;BME280;48112;53.282;6.150;2023-01-25T00:18:45;103977.50;;;16.08;50.34
62126;BME280;48112;53.282;6.150;2023-01-25T00:19:47;103977.50;;;16.08;50.16
62126;BME280;48112;53.282;6.150;2023-01-25T00:20:49;103969.31;;;16.08;50.36
62126;BME280;48112;53.282;6.150;2023-01-25T00:21:53;103969.63;;;16.07;50.04
62126;BME280;48112;53.282;6.150;2023-01-25T00:22:55;103967.72;;;16.07;50.18
62126;BME280;48112;53.282;6.150;2023-01-25T00:23:57;103972.34;;;16.07;50.30
62126;BME280;48112;53.282;6.150;2023-01-25T00:25:00;103959.84;;;16.06;50.34
62126;BME280;48112;53.282;6.150;2023-01-25T00:26:01;103965.28;;;16.06;50.15
62126;BME280;48112;53.282;6.150;2023-01-25T00:27:04;103961.75;;;16.05;50.08
62126;BME280;48112;53.282;6.150;2023-01-25T00:28:05;103961.75;;;16.05;50.25
62126;BME280;48112;53.282;6.150;2023-01-25T00:29:08;103959.00;;;16.05;50.21
62126;BME280;48112;53.282;6.150;2023-01-25T00:30:12;103957.41;;;16.04;50.05
62126;BME280;48112;53.282;6.150;2023-01-25T00:31:16;103958.19;;;16.05;50.07
62126;BME280;48112;53.282;6.150;2023-01-25T00:32:31;103952.75;;;16.05;50.22
62126;BME280;48112;53.282;6.150;2023-01-25T00:33:39;103955.78;;;16.03;50.09
62126;BME280;48112;53.282;6.150;2023-01-25T00:34:45;103953.06;;;16.03;50.21
62126;BME280;48112;53.282;6.150;2023-01-25T00:35:47;103950.31;;;16.03;50.12
62126;BME280;48112;53.282;6.150;2023-01-25T00:36:49;103953.06;;;16.03;50.04
62126;BME280;48112;53.282;6.150;2023-01-25T00:37:53;103950.31;;;16.03;50.08
62126;BME280;48112;53.282;6.150;2023-01-25T00:38:58;103949.53;;;16.03;49.99
62126;BME280;48112;53.282;6.150;2023-01-25T00:40:00;103943.28;;;16.02;50.12
62126;BME280;48112;53.282;6.150;2023-01-25T00:41:02;103941.38;;;16.03;50.14
62126;BME280;48112;53.282;6.150;2023-01-25T00:42:06;103948.72;;;16.02;50.09
62126;BME280;48112;53.282;6.150;2023-01-25T00:43:09;103944.38;;;16.01;50.17
62126;BME280;48112;53.282;6.150;2023-01-25T00:44:12;103941.66;;;16.01;50.19
62126;BME280;48112;53.282;6.150;2023-01-25T00:45:13;103943.56;;;16.01;50.01
62126;BME280;48112;53.282;6.150;2023-01-25T00:46:16;103940.84;;;16.01;50.20
62126;BME280;48112;53.282;6.150;2023-01-25T00:47:18;103940.03;;;16.00;50.20
62126;BME280;48112;53.282;6.150;2023-01-25T00:48:21;103937.31;;;16.00;49.97
62126;BME280;48112;53.282;6.150;2023-01-25T00:49:23;103943.88;;;15.99;50.02
62126;BME280;48112;53.282;6.150;2023-01-25T00:50:26;103944.66;;;16.00;50.11
62126;BME280;48112;53.282;6.150;2023-01-25T00:51:30;103932.97;;;15.99;50.10
62126;BME280;48112;53.282;6.150;2023-01-25T00:52:32;103933.75;;;16.00;50.21
62126;BME280;48112;53.282;6.150;2023-01-25T00:53:36;103939.22;;;16.00;50.08
62126;BME280;48112;53.282;6.150;2023-01-25T00:54:38;103936.78;;;15.98;50.16
62126;BME280;48112;53.282;6.150;2023-01-25T00:55:41;103938.44;;;15.99;50.07
62126;BME280;48112;53.282;6.150;2023-01-25T00:56:43;103936.00;;;15.98;50.22
62126;BME280;48112;53.282;6.150;2023-01-25T00:57:46;103935.69;;;15.99;50.13
62126;BME280;48112;53.282;6.150;2023-01-25T00:58:49;103929.72;;;15.97;50.03
62126;BME280;48112;53.282;6.150;2023-01-25T00:59:52;103930.56;;;15.98;50.12
62126;BME280;48112;53.282;6.150;2023-01-25T01:00:55;103932.47;;;15.97;50.19
62126;BME280;48112;53.282;6.150;2023-01-25T01:01:57;103927.00;;;15.97;50.18
62126;BME280;48112;53.282;6.150;2023-01-25T01:03:00;103920.75;;;15.97;50.16
62126;BME280;48112;53.282;6.150;2023-01-25T01:04:02;103924.28;;;15.97;50.18
62126;BME280;48112;53.282;6.150;2023-01-25T01:05:06;103921.56;;;15.97;50.13
62126;BME280;48112;53.282;6.150;2023-01-25T01:06:10;103917.22;;;15.96;50.17
62126;BME280;48112;53.282;6.150;2023-01-25T01:07:13;103917.22;;;15.96;50.13
62126;BME280;48112;53.282;6.150;2023-01-25T01:08:16;103912.56;;;15.97;50.21
62126;BME280;48112;53.282;6.150;2023-01-25T01:09:20;103910.97;;;15.96;50.10
62126;BME280;48112;53.282;6.150;2023-01-25T01:10:25;103914.00;;;15.94;49.98
62126;BME280;48112;53.282;6.150;2023-01-25T01:11:26;103915.59;;;15.95;50.17
62126;BME280;48112;53.282;6.150;2023-01-25T01:12:30;103914.81;;;15.95;50.17
62126;BME280;48112;53.282;6.150;2023-01-25T01:13:32;103910.16;;;15.95;50.01
62126;BME280;48112;53.282;6.150;2023-01-25T01:14:35;103908.53;;;15.94;49.98
62126;BME280;48112;53.282;6.150;2023-01-25T01:15:37;103918.63;;;15.94;49.97
62126;BME280;48112;53.282;6.150;2023-01-25T01:16:39;103913.19;;;15.94;50.12
62126;BME280;48112;53.282;6.150;2023-01-25T01:17:43;103910.44;;;15.94;50.17
62126;BME280;48112;53.282;6.150;2023-01-25T01:18:46;103906.94;;;15.93;50.17
62126;BME280;48112;53.282;6.150;2023-01-25T01:19:47;103907.72;;;15.94;50.18
62126;BME280;48112;53.282;6.150;2023-01-25T01:20:50;103902.56;;;15.92;50.03
62126;BME280;48112;53.282;6.150;2023-01-25T01:21:55;103909.66;;;15.93;49.96
62126;BME280;48112;53.282;6.150;2023-01-25T01:22:57;103911.56;;;15.93;49.87
62126;BME280;48112;53.282;6.150;2023-01-25T01:23:59;103908.03;;;15.92;50.14
62126;BME280;48112;53.282;6.150;2023-01-25T01:25:03;103911.56;;;15.93;50.19
62126;BME280;48112;53.282;6.150;2023-01-25T01:26:08;103909.16;;;15.91;50.20
62126;BME280;48112;53.282;6.150;2023-01-25T01:27:09;103910.75;;;15.92;49.93
62126;BME280;48112;53.282;6.150;2023-01-25T01:28:12;103918.13;;;15.92;50.13
62126;BME280;48112;53.282;6.150;2023-01-25T01:29:14;103911.88;;;15.91;50.04
62126;BME280;48112;53.282;6.150;2023-01-25T01:30:16;103920.03;;;15.91;49.92
62126;BME280;48112;53.282;6.150;2023-01-25T01:31:19;103906.41;;;15.91;50.11
62126;BME280;48112;53.282;6.150;2023-01-25T01:32:30;103914.59;;;15.91;50.33
62126;BME280;48112;53.282;6.150;2023-01-25T01:33:33;103915.69;;;15.90;50.13
62126;BME280;48112;53.282;6.150;2023-01-25T01:34:36;103912.97;;;15.90;50.19
62126;BME280;48112;53.282;6.150;2023-01-25T01:35:39;103919.22;;;15.91;50.00
62126;BME280;48112;53.282;6.150;2023-01-25T01:36:40;103917.63;;;15.90;50.13
62126;BME280;48112;53.282;6.150;2023-01-25T01:37:43;103915.69;;;15.90;49.97
62126;BME280;48112;53.282;6.150;2023-01-25T01:38:45;103917.63;;;15.90;50.10
62126;BME280;48112;53.282;6.150;2023-01-25T01:39:48;103922.25;;;15.89;50.23
62126;BME280;48112;53.282;6.150;2023-01-25T01:40:51;103922.25;;;15.89;49.96
62126;BME280;48112;53.282;6.150;2023-01-25T01:41:53;103916.00;;;15.89;49.91
62126;BME280;48112;53.282;6.150;2023-01-25T01:42:59;103909.75;;;15.88;49.91
62126;BME280;48112;53.282;6.150;2023-01-25T01:44:03;103913.56;;;15.87;50.08
62126;BME280;48112;53.282;6.150;2023-01-25T01:46:24;103912.47;;;15.88;49.95
62126;BME280;48112;53.282;6.150;2023-01-25T01:47:30;103910.53;;;15.89;50.14
62126;BME280;48112;53.282;6.150;2023-01-25T01:48:39;103912.78;;;15.87;49.98
62126;BME280;48112;53.282;6.150;2023-01-25T01:49:43;103908.13;;;15.87;49.89
62126;BME280;48112;53.282;6.150;2023-01-25T01:50:51;103909.25;;;15.86;50.14
62126;BME280;48112;53.282;6.150;2023-01-25T01:51:54;103910.84;;;15.87;49.96
62126;BME280;48112;53.282;6.150;2023-01-25T01:53:02;103910.84;;;15.87;50.09
62126;BME280;48112;53.282;6.150;2023-01-25T01:54:04;103916.28;;;15.87;49.93
62126;BME280;48112;53.282;6.150;2023-01-25T01:55:09;103907.34;;;15.87;50.09
62126;BME280;48112;53.282;6.150;2023-01-25T01:56:18;103911.97;;;15.86;49.99
62126;BME280;48112;53.282;6.150;2023-01-25T01:57:24;103908.41;;;15.86;49.96
62126;BME280;48112;53.282;6.150;2023-01-25T01:58:28;103906.50;;;15.86;49.93
62126;BME280;48112;53.282;6.150;2023-01-25T01:59:32;103906.50;;;15.86;50.08
62126;BME280;48112;53.282;6.150;2023-01-25T02:00:36;103910.34;;;15.85;49.92
62126;BME280;48112;53.282;6.150;2023-01-25T02:05:44;103892.38;;;15.84;49.98
62126;BME280;48112;53.282;6.150;2023-01-25T02:06:49;103897.03;;;15.84;50.08
62126;BME280;48112;53.282;6.150;2023-01-25T02:07:53;103893.50;;;15.83;49.88
62126;BME280;48112;53.282;6.150;2023-01-25T02:08:57;103895.09;;;15.84;49.93
62126;BME280;48112;53.282;6.150;2023-01-25T02:09:59;103891.59;;;15.84;49.90
62126;BME280;48112;53.282;6.150;2023-01-25T02:11:02;103888.06;;;15.83;50.04
62126;BME280;48112;53.282;6.150;2023-01-25T02:12:06;103889.16;;;15.82;50.08
62126;BME280;48112;53.282;6.150;2023-01-25T02:13:09;103893.50;;;15.83;49.82
62126;BME280;48112;53.282;6.150;2023-01-25T02:14:11;103890.78;;;15.83;50.04
62126;BME280;48112;53.282;6.150;2023-01-25T02:15:15;103889.16;;;15.82;50.10
62126;BME280;48112;53.282;6.150;2023-01-25T02:16:17;103883.72;;;15.82;49.93
62126;BME280;48112;53.282;6.150;2023-01-25T02:17:22;103887.53;;;15.81;49.83
62126;BME280;48112;53.282;6.150;2023-01-25T02:18:24;103887.53;;;15.81;50.03
62126;BME280;48112;53.282;6.150;2023-01-25T02:19:30;103885.63;;;15.82;49.95
62126;BME280;48112;53.282;6.150;2023-01-25T02:20:38;103882.09;;;15.81;49.94
62126;BME280;48112;53.282;6.150;2023-01-25T02:21:42;103883.72;;;15.82;49.75
62126;BME280;48112;53.282;6.150;2023-01-25T02:22:46;103885.13;;;15.80;50.12
62126;BME280;48112;53.282;6.150;2023-01-25T02:23:52;103884.28;;;15.79;50.06
62126;BME280;48112;53.282;6.150;2023-01-25T02:25:02;103883.22;;;15.80;50.11
62126;BME280;48112;53.282;6.150;2023-01-25T02:26:06;103880.47;;;15.80;50.04
62126;BME280;48112;53.282;6.150;2023-01-25T02:27:08;103891.38;;;15.80;50.08
62126;BME280;48112;53.282;6.150;2023-01-25T02:28:12;103891.38;;;15.80;49.86
62126;BME280;48112;53.282;6.150;2023-01-25T02:29:15;103880.78;;;15.79;50.03
62126;BME280;48112;53.282;6.150;2023-01-25T02:30:20;103885.94;;;15.80;49.86
62126;BME280;48112;53.282;6.150;2023-01-25T02:31:23;103878.84;;;15.79;50.08
62126;BME280;48112;53.282;6.150;2023-01-25T02:32:26;103877.25;;;15.78;49.87
62126;BME280;48112;53.282;6.150;2023-01-25T02:33:28;103878.06;;;15.79;49.85
62126;BME280;48112;53.282;6.150;2023-01-25T02:34:30;103876.13;;;15.79;49.85
62126;BME280;48112;53.282;6.150;2023-01-25T02:35:36;103874.53;;;15.78;50.34
62126;BME280;48112;53.282;6.150;2023-01-25T02:36:39;103876.44;;;15.78;49.76
62126;BME280;48112;53.282;6.150;2023-01-25T02:37:41;103875.63;;;15.77;50.04
62126;BME280;48112;53.282;6.150;2023-01-25T02:38:46;103864.75;;;15.77;50.04
62126;BME280;48112;53.282;6.150;2023-01-25T02:39:48;103876.44;;;15.78;49.88
62126;BME280;48112;53.282;6.150;2023-01-25T02:40:54;103875.63;;;15.77;49.92
62126;BME280;48112;53.282;6.150;2023-01-25T02:41:58;103870.19;;;15.77;50.02
62126;BME280;48112;53.282;6.150;2023-01-25T02:43:02;103873.22;;;15.76;50.00
62126;BME280;48112;53.282;6.150;2023-01-25T02:44:04;103869.38;;;15.77;49.95
62126;BME280;48112;53.282;6.150;2023-01-25T02:45:08;103874.81;;;15.77;49.92
62126;BME280;48112;53.282;6.150;2023-01-25T02:46:14;103879.44;;;15.76;49.79
62126;BME280;48112;53.282;6.150;2023-01-25T02:47:21;103874.00;;;15.76;50.08
62126;BME280;48112;53.282;6.150;2023-01-25T02:48:23;103875.13;;;15.75;49.82
62126;BME280;48112;53.282;6.150;2023-01-25T02:49:25;103875.13;;;15.75;50.36
62126;BME280;48112;53.282;6.150;2023-01-25T02:50:27;103869.69;;;15.75;50.06
62126;BME280;48112;53.282;6.150;2023-01-25T02:51:30;103872.41;;;15.75;49.79
62126;BME280;48112;53.282;6.150;2023-01-25T02:52:32;103863.41;;;15.75;50.04
62126;BME280;48112;53.282;6.150;2023-01-25T02:53:35;103865.34;;;15.74;49.89
62126;BME280;48112;53.282;6.150;2023-01-25T02:54:36;103865.34;;;15.74;50.02
62126;BME280;48112;53.282;6.150;2023-01-25T02:55:40;103865.34;;;15.74;49.85
62126;BME280;48112;53.282;6.150;2023-01-25T02:56:43;103858.25;;;15.73;49.69
62126;BME280;48112;53.282;6.150;2023-01-25T02:57:46;103863.72;;;15.73;49.95
62126;BME280;48112;53.282;6.150;2023-01-25T02:58:49;103864.53;;;15.74;49.96
62126;BME280;48112;53.282;6.150;2023-01-25T02:59:53;103856.34;;;15.74;49.78
62126;BME280;48112;53.282;6.150;2023-01-25T03:00:56;103853.63;;;15.74;49.76
62126;BME280;48112;53.282;6.150;2023-01-25T03:01:59;103859.09;;;15.74;49.91
62126;BME280;48112;53.282;6.150;2023-01-25T03:03:02;103856.66;;;15.72;49.92
62126;BME280;48112;53.282;6.150;2023-01-25T03:04:07;103851.22;;;15.72;49.92
62126;BME280;48112;53.282;6.150;2023-01-25T03:05:09;103849.31;;;15.73;49.83
62126;BME280;48112;53.282;6.150;2023-01-25T03:06:12;103843.03;;;15.72;49.90
62126;BME280;48112;53.282;6.150;2023-01-25T03:07:16;103848.50;;;15.72;49.85
62126;BME280;48112;53.282;6.150;2023-01-25T03:08:18;103848.50;;;15.72;49.78
62126;BME280;48112;53.282;6.150;2023-01-25T03:09:23;103837.59;;;15.72;49.99
62126;BME280;48112;53.282;6.150;2023-01-25T03:10:25;103839.50;;;15.72;49.78
62126;BME280;48112;53.282;6.150;2023-01-25T03:11:29;103833.25;;;15.71;49.78
62126;BME280;48112;53.282;6.150;2023-01-25T03:12:34;103831.63;;;15.70;49.79
62126;BME280;48112;53.282;6.150;2023-01-25T03:13:36;103836.00;;;15.71;49.80
62126;BME280;48112;53.282;6.150;2023-01-25T03:14:39;103844.16;;;15.71;49.85
62126;BME280;48112;53.282;6.150;2023-01-25T03:15:43;103831.63;;;15.70;49.84
62126;BME280;48112;53.282;6.150;2023-01-25T03:16:45;103831.63;;;15.70;49.80
62126;BME280;48112;53.282;6.150;2023-01-25T03:17:48;103836.25;;;15.70;49.91
62126;BME280;48112;53.282;6.150;2023-01-25T03:18:52;103839.00;;;15.70;49.71
62126;BME280;48112;53.282;6.150;2023-01-25T03:19:56;103835.47;;;15.69;49.87
62126;BME280;48112;53.282;6.150;2023-01-25T03:21:06;103834.66;;;15.69;49.70
62126;BME280;48112;53.282;6.150;2023-01-25T03:22:07;103830.03;;;15.69;49.73
62126;BME280;48112;53.282;6.150;2023-01-25T03:23:11;103830.03;;;15.69;49.65
62126;BME280;48112;53.282;6.150;2023-01-25T03:24:13;103824.59;;;15.69;49.74
62126;BME280;48112;53.282;6.150;2023-01-25T03:25:19;103824.59;;;15.69;49.64
62126;BME280;48112;53.282;6.150;2023-01-25T03:26:29;103815.59;;;15.69;49.43
62126;BME280;48112;53.282;6.150;2023-01-25T03:27:47;103815.59;;;15.69;49.88
62126;BME280;48112;53.282;6.150;2023-01-25T03:28:49;103817.50;;;15.68;49.68
62126;BME280;48112;53.282;6.150;2023-01-25T03:29:52;103814.00;;;15.68;49.85
62126;BME280;48112;53.282;6.150;2023-01-25T03:30:56;103815.91;;;15.67;49.46
62126;BME280;48112;53.282;6.150;2023-01-25T03:31:59;103811.25;;;15.68;49.64
62126;BME280;48112;53.282;6.150;2023-01-25T03:33:00;103807.72;;;15.67;49.65
62126;BME280;48112;53.282;6.150;2023-01-25T03:34:03;103809.31;;;15.68;50.08
62126;BME280;48112;53.282;6.150;2023-01-25T03:35:09;103809.63;;;15.67;49.84
62126;BME280;48112;53.282;6.150;2023-01-25T03:36:12;103807.72;;;15.67;49.73
62126;BME280;48112;53.282;6.150;2023-01-25T03:37:14;103809.63;;;15.67;49.70
62126;BME280;48112;53.282;6.150;2023-01-25T03:38:17;103808.84;;;15.66;49.65
62126;BME280;48112;53.282;6.150;2023-01-25T03:39:20;103809.63;;;15.67;49.83
62126;BME280;48112;53.282;6.150;2023-01-25T03:40:23;103801.75;;;15.65;49.85
62126;BME280;48112;53.282;6.150;2023-01-25T03:41:25;103812.66;;;15.65;49.87
62126;BME280;48112;53.282;6.150;2023-01-25T03:42:31;103806.44;;;15.65;49.71
62126;BME280;48112;53.282;6.150;2023-01-25T03:43:34;103804.50;;;15.65;49.80
62126;BME280;48112;53.282;6.150;2023-01-25T03:44:37;103807.22;;;15.65;49.71
62126;BME280;48112;53.282;6.150;2023-01-25T03:45:38;103806.13;;;15.66;49.63
62126;BME280;48112;53.282;6.150;2023-01-25T03:46:41;103805.59;;;15.64;49.86
62126;BME280;48112;53.282;6.150;2023-01-25T03:47:44;103800.16;;;15.64;49.88
62126;BME280;48112;53.282;6.150;2023-01-25T03:48:47;103805.59;;;15.64;49.57
62126;BME280;48112;53.282;6.150;2023-01-25T03:49:49;103802.59;;;15.66;49.64
62126;BME280;48112;53.282;6.150;2023-01-25T03:50:54;103799.03;;;15.65;49.72
62126;BME280;48112;53.282;6.150;2023-01-25T03:51:56;103808.34;;;15.64;49.72
62126;BME280;48112;53.282;6.150;2023-01-25T03:53:07;103804.00;;;15.63;49.83
62126;BME280;48112;53.282;6.150;2023-01-25T03:54:20;103801.28;;;15.63;49.71
62126;BME280;48112;53.282;6.150;2023-01-25T03:55:23;103804.78;;;15.64;49.64
62126;BME280;48112;53.282;6.150;2023-01-25T03:56:24;103807.53;;;15.64;49.64
62126;BME280;48112;53.282;6.150;2023-01-25T03:57:51;103803.19;;;15.63;49.67
62126;BME280;48112;53.282;6.150;2023-01-25T03:58:55;103814.91;;;15.63;49.60
62126;BME280;48112;53.282;6.150;2023-01-25T03:59:57;103810.53;;;15.62;49.72
62126;BME280;48112;53.282;6.150;2023-01-25T04:01:00;103807.81;;;15.62;49.63
62126;BME280;48112;53.282;6.150;2023-01-25T04:02:02;103809.75;;;15.62;49.64
62126;BME280;48112;53.282;6.150;2023-01-25T04:03:05;103808.63;;;15.63;49.72
62126;BME280;48112;53.282;6.150;2023-01-25T04:04:06;103805.09;;;15.62;49.65
62126;BME280;48112;53.282;6.150;2023-01-25T04:05:11;103807.81;;;15.62;49.65
62126;BME280;48112;53.282;6.150;2023-01-25T04:06:13;103806.22;;;15.61;49.59
62126;BME280;48112;53.282;6.150;2023-01-25T04:07:17;103800.78;;;15.61;49.46
62126;BME280;48112;53.282;6.150;2023-01-25T04:08:18;103804.59;;;15.60;49.59
62126;BME280;48112;53.282;6.150;2023-01-25T04:09:21;103804.59;;;15.60;49.59
62126;BME280;48112;53.282;6.150;2023-01-25T04:10:26;103806.22;;;15.61;49.73
62126;BME280;48112;53.282;6.150;2023-01-25T04:11:29;103810.84;;;15.61;49.67
62126;BME280;48112;53.282;6.150;2023-01-25T04:12:32;103801.84;;;15.60;49.63
62126;BME280;48112;53.282;6.150;2023-01-25T04:13:34;103799.13;;;15.60;49.67
62126;BME280;48112;53.282;6.150;2023-01-25T04:14:40;103797.53;;;15.59;49.71
62126;BME280;48112;53.282;6.150;2023-01-25T04:15:51;103798.34;;;15.60;49.61
62126;BME280;48112;53.282;6.150;2023-01-25T04:17:16;103789.38;;;15.59;49.55
62126;BME280;48112;53.282;6.150;2023-01-25T04:18:26;103786.63;;;15.59;49.70
62126;BME280;48112;53.282;6.150;2023-01-25T04:19:28;103785.81;;;15.59;49.74
62126;BME280;48112;53.282;6.150;2023-01-25T04:20:33;103787.47;;;15.60;49.67
62126;BME280;48112;53.282;6.150;2023-01-25T04:21:35;103779.59;;;15.58;49.50
62126;BME280;48112;53.282;6.150;2023-01-25T04:22:37;103771.41;;;15.58;49.58
62126;BME280;48112;53.282;6.150;2023-01-25T04:23:40;103769.78;;;15.57;49.32
62126;BME280;48112;53.282;6.150;2023-01-25T04:24:41;103774.16;;;15.58;49.53
62126;BME280;48112;53.282;6.150;2023-01-25T04:25:51;103769.47;;;15.59;49.66
62126;BME280;48112;53.282;6.150;2023-01-25T04:26:52;103764.34;;;15.57;49.66
62126;BME280;48112;53.282;6.150;2023-01-25T04:27:55;103763.25;;;15.58;49.51
62126;BME280;48112;53.282;6.150;2023-01-25T04:28:57;103761.63;;;15.57;49.69
62126;BME280;48112;53.282;6.150;2023-01-25T04:30:02;103756.16;;;15.57;49.68
62126;BME280;48112;53.282;6.150;2023-01-25T04:31:04;103755.38;;;15.57;49.46
62126;BME280;48112;53.282;6.150;2023-01-25T04:32:12;103752.66;;;15.57;49.42
62126;BME280;48112;53.282;6.150;2023-01-25T04:33:14;103756.16;;;15.57;49.55
62126;BME280;48112;53.282;6.150;2023-01-25T04:34:17;103755.38;;;15.57;49.53
62126;BME280;48112;53.282;6.150;2023-01-25T04:35:19;103755.38;;;15.57;49.63
62126;BME280;48112;53.282;6.150;2023-01-25T04:36:22;103757.28;;;15.56;49.45
62126;BME280;48112;53.282;6.150;2023-01-25T04:37:24;103762.75;;;15.56;49.61
62126;BME280;48112;53.282;6.150;2023-01-25T04:38:31;103760.31;;;15.55;49.46
62126;BME280;48112;53.282;6.150;2023-01-25T04:39:34;103755.69;;;15.55;49.71
62126;BME280;48112;53.282;6.150;2023-01-25T04:40:35;103759.19;;;15.56;49.53
62126;BME280;48112;53.282;6.150;2023-01-25T04:41:38;103756.47;;;15.56;49.60
62126;BME280;48112;53.282;6.150;2023-01-25T04:42:40;103752.16;;;15.55;49.51
62126;BME280;48112;53.282;6.150;2023-01-25T04:43:43;103761.13;;;15.55;49.51
62126;BME280;48112;53.282;6.150;2023-01-25T04:44:44;103762.22;;;15.54;49.49
62126;BME280;48112;53.282;6.150;2023-01-25T04:45:48;103762.22;;;15.54;49.45
62126;BME280;48112;53.282;6.150;2023-01-25T04:46:58;103764.94;;;15.54;49.66
62126;BME280;48112;53.282;6.150;2023-01-25T04:48:03;103763.03;;;15.55;49.61
62126;BME280;48112;53.282;6.150;2023-01-25T04:49:06;103762.22;;;15.54;49.49
62126;BME280;48112;53.282;6.150;2023-01-25T04:50:09;103764.94;;;15.54;49.51
62126;BME280;48112;53.282;6.150;2023-01-25T04:51:11;103756.00;;;15.54;49.50
62126;BME280;48112;53.282;6.150;2023-01-25T04:52:15;103758.72;;;15.54;49.39
62126;BME280;48112;53.282;6.150;2023-01-25T04:53:17;103769.91;;;15.52;49.43
62126;BME280;48112;53.282;6.150;2023-01-25T04:54:20;103763.34;;;15.53;49.42
62126;BME280;48112;53.282;6.150;2023-01-25T04:55:22;103754.34;;;15.53;49.57
62126;BME280;48112;53.282;6.150;2023-01-25T04:56:26;103756.31;;;15.52;49.51
62126;BME280;48112;53.282;6.150;2023-01-25T04:57:29;103760.63;;;15.53;49.42
62126;BME280;48112;53.282;6.150;2023-01-25T04:58:32;103759.03;;;15.52;49.54
62126;BME280;48112;53.282;6.150;2023-01-25T04:59:33;103764.47;;;15.52;49.49
62126;BME280;48112;53.282;6.150;2023-01-25T05:00:36;103767.19;;;15.52;49.61
62126;BME280;48112;53.282;6.150;2023-01-25T05:01:39;103763.66;;;15.52;49.35
62126;BME280;48112;53.282;6.150;2023-01-25T05:02:43;103757.38;;;15.51;49.48
62126;BME280;48112;53.282;6.150;2023-01-25T05:03:44;103758.22;;;15.52;49.60
62126;BME280;48112;53.282;6.150;2023-01-25T05:05:09;103764.75;;;15.51;49.47
62126;BME280;48112;53.282;6.150;2023-01-25T05:06:11;103759.28;;;15.51;49.51
62126;BME280;48112;53.282;6.150;2023-01-25T05:07:14;103762.03;;;15.51;49.67
62126;BME280;48112;53.282;6.150;2023-01-25T05:08:16;103763.13;;;15.50;49.55
62126;BME280;48112;53.282;6.150;2023-01-25T05:09:18;103766.69;;;15.50;49.45
62126;BME280;48112;53.282;6.150;2023-01-25T05:10:21;103768.59;;;15.50;49.47
62126;BME280;48112;53.282;6.150;2023-01-25T05:11:50;103772.13;;;15.50;49.54
62126;BME280;48112;53.282;6.150;2023-01-25T05:13:03;103764.25;;;15.49;49.45
62126;BME280;48112;53.282;6.150;2023-01-25T05:14:06;103770.50;;;15.49;49.54
62126;BME280;48112;53.282;6.150;2023-01-25T05:15:08;103763.44;;;15.48;49.45
62126;BME280;48112;53.282;6.150;2023-01-25T05:16:12;103766.69;;;15.50;49.44
62126;BME280;48112;53.282;6.150;2023-01-25T05:17:15;103771.31;;;15.50;49.49
62126;BME280;48112;53.282;6.150;2023-01-25T05:18:18;103765.88;;;15.50;49.43
62126;BME280;48112;53.282;6.150;2023-01-25T05:19:21;103769.72;;;15.49;49.56
62126;BME280;48112;53.282;6.150;2023-01-25T05:20:31;103775.94;;;15.49;49.54
62126;BME280;48112;53.282;6.150;2023-01-25T05:21:34;103774.34;;;15.48;49.44
62126;BME280;48112;53.282;6.150;2023-01-25T05:22:54;103768.06;;;15.48;49.52
62126;BME280;48112;53.282;6.150;2023-01-25T05:23:57;103769.72;;;15.49;49.53
62126;BME280;48112;53.282;6.150;2023-01-25T05:24:58;103765.34;;;15.48;49.47
62126;BME280;48112;53.282;6.150;2023-01-25T05:26:02;103772.72;;;15.47;49.29
62126;BME280;48112;53.282;6.150;2023-01-25T05:27:22;103768.88;;;15.48;49.52
62126;BME280;48112;53.282;6.150;2023-01-25T05:28:27;103771.09;;;15.46;49.37
62126;BME280;48112;53.282;6.150;2023-01-25T05:29:48;103770.00;;;15.47;49.35
62126;BME280;48112;53.282;6.150;2023-01-25T05:30:52;103768.38;;;15.46;49.47
62126;BME280;48112;53.282;6.150;2023-01-25T05:32:04;103771.09;;;15.46;49.29
62126;BME280;48112;53.282;6.150;2023-01-25T05:33:09;103765.66;;;15.46;49.48
62126;BME280;48112;53.282;6.150;2023-01-25T05:34:10;103768.38;;;15.46;49.29
62126;BME280;48112;53.282;6.150;2023-01-25T05:35:13;103765.66;;;15.46;49.35
62126;BME280;48112;53.282;6.150;2023-01-25T05:36:14;103765.66;;;15.46;49.43
62126;BME280;48112;53.282;6.150;2023-01-25T05:37:17;103762.94;;;15.46;49.29
62126;BME280;48112;53.282;6.150;2023-01-25T05:38:24;103766.78;;;15.45;49.34
62126;BME280;48112;53.282;6.150;2023-01-25T05:39:27;103766.78;;;15.45;49.31